createdAt,value
2022-09-24T00:16:23.412Z,3.13
2022-09-24T00:18:53.684Z,2.70
2022-09-24T00:21:23.374Z,2.50
2022-09-24T00:23:52.962Z,4.10
2022-09-24T00:26:38.686Z,2.93
2022-09-24T00:29:06.975Z,2.33
2022-09-24T00:31:35.343Z,2.97
2022-09-24T00:34:05.315Z,3.47
2022-09-24T00:36:33.418Z,3.30
2022-09-24T00:39:01.937Z,2.30
2022-09-24T00:41:33.353Z,3.43
2022-09-24T00:44:01.939Z,3.17
2022-09-24T00:46:39.273Z,2.30
2022-09-24T00:49:15.205Z,3.10
2022-09-24T00:51:44.976Z,2.77
2022-09-24T00:54:17.360Z,2.20
2022-09-24T00:56:46.768Z,3.20
2022-09-24T00:59:18.000Z,3.10
2022-09-24T01:01:47.572Z,3.30
2022-09-24T01:04:21.165Z,2.20
2022-09-24T01:06:49.745Z,4.27
2022-09-24T01:09:18.417Z,2.80
2022-09-24T01:11:54.607Z,3.60
2022-09-24T01:14:39.681Z,3.73
2022-09-24T01:17:16.584Z,2.97
2022-09-24T01:20:27.930Z,3.00
2022-09-24T01:23:25.018Z,2.40
2022-09-24T01:26:07.794Z,3.10
2022-09-24T01:28:52.382Z,2.57
2022-09-24T01:31:28.422Z,2.77
2022-09-24T01:34:00.293Z,2.57
2022-09-24T01:36:31.342Z,3.17
2022-09-24T01:39:02.431Z,3.17
2022-09-24T01:41:30.657Z,3.50
2022-09-24T01:44:00.971Z,3.30
2022-09-24T01:46:31.850Z,2.43
2022-09-24T01:49:00.029Z,3.47
2022-09-24T01:51:31.879Z,2.93
2022-09-24T01:54:06.877Z,2.70
2022-09-24T01:56:39.776Z,3.97
2022-09-24T01:59:15.117Z,3.03
2022-09-24T02:01:50.300Z,3.73
2022-09-24T02:04:20.781Z,2.10
2022-09-24T02:06:56.506Z,2.10
2022-09-24T02:09:32.504Z,2.00
2022-09-24T02:12:07.327Z,2.50
2022-09-24T02:14:41.105Z,2.80
2022-09-24T02:17:12.160Z,2.20
2022-09-24T02:19:42.817Z,2.87
2022-09-24T02:22:13.819Z,2.13
2022-09-24T02:24:46.636Z,2.23
2022-09-24T02:27:14.793Z,2.97
2022-09-24T02:29:42.742Z,3.50
2022-09-24T02:32:16.535Z,2.20
2022-09-24T02:34:48.917Z,2.90
2022-09-24T02:37:18.193Z,3.47
2022-09-24T02:39:46.176Z,2.97
2022-09-24T02:42:15.685Z,2.57
2022-09-24T02:44:43.773Z,2.30
2022-09-24T02:47:13.226Z,2.23
2022-09-24T02:49:41.490Z,2.77
2022-09-24T02:52:10.328Z,2.43
2022-09-24T02:54:38.396Z,2.10
2022-09-24T02:57:06.685Z,2.60
2022-09-24T02:59:34.830Z,2.60
2022-09-24T03:02:02.975Z,2.70
2022-09-24T03:04:32.445Z,3.27
2022-09-24T03:07:00.555Z,3.67
2022-09-24T03:09:28.681Z,2.70
2022-09-24T03:11:57.432Z,1.90
2022-09-24T03:14:26.128Z,2.20
2022-09-24T03:16:54.121Z,2.40
2022-09-24T03:19:22.152Z,3.60
2022-09-24T03:21:51.488Z,2.60
2022-09-24T03:24:19.444Z,2.73
2022-09-24T03:26:47.422Z,3.13
2022-09-24T03:29:15.515Z,2.60
2022-09-24T03:31:42.701Z,2.27
2022-09-24T03:34:10.741Z,2.87
2022-09-24T03:36:39.379Z,3.77
2022-09-24T03:39:08.799Z,2.60
2022-09-24T03:41:36.762Z,2.50
2022-09-24T03:44:04.995Z,2.10
2022-09-24T03:46:32.986Z,2.67
2022-09-24T03:49:01.273Z,2.80
2022-09-24T03:51:29.237Z,3.23
2022-09-24T03:53:57.245Z,3.13
2022-09-24T03:56:26.531Z,2.77
2022-09-24T03:58:55.370Z,2.10
2022-09-24T04:01:23.370Z,2.13
2022-09-24T04:03:51.955Z,2.60
2022-09-24T04:06:24.997Z,2.33
2022-09-24T04:08:54.066Z,2.90
2022-09-24T04:11:22.081Z,2.63
2022-09-24T04:13:51.657Z,3.33
2022-09-24T04:16:19.621Z,2.30
2022-09-24T04:18:48.014Z,2.70
2022-09-24T04:21:16.002Z,2.77
2022-09-24T04:23:44.514Z,2.30
2022-09-24T04:26:12.557Z,3.47
2022-09-24T04:28:40.563Z,2.30
2022-09-24T04:31:09.984Z,2.77
2022-09-24T04:33:38.029Z,2.40
2022-09-24T04:36:05.977Z,2.70
2022-09-24T04:38:33.959Z,2.63
2022-09-24T04:41:07.200Z,2.73
2022-09-24T04:43:37.010Z,2.40
2022-09-24T04:46:05.510Z,2.97
2022-09-24T04:48:38.405Z,2.10
2022-09-24T04:51:07.062Z,2.60
2022-09-24T04:53:35.175Z,2.27
2022-09-24T04:56:03.688Z,2.07
2022-09-24T04:58:32.040Z,2.90
2022-09-24T05:01:03.977Z,2.90
2022-09-24T05:03:33.185Z,2.13
2022-09-24T05:06:02.944Z,2.63
2022-09-24T05:08:30.871Z,2.37
2022-09-24T05:10:58.838Z,2.10
2022-09-24T05:13:26.812Z,3.40
2022-09-24T05:15:54.952Z,2.43
2022-09-24T05:18:22.914Z,3.20
2022-09-24T05:20:50.853Z,1.87
2022-09-24T05:23:20.155Z,2.00
2022-09-24T05:26:05.658Z,2.97
2022-09-24T05:28:35.370Z,2.73
2022-09-24T05:31:03.438Z,2.30
2022-09-24T05:33:31.571Z,2.50
2022-09-24T05:35:59.651Z,2.80
2022-09-24T05:38:29.963Z,2.63
2022-09-24T05:40:58.053Z,2.17
2022-09-24T05:43:27.766Z,4.30
2022-09-24T05:45:58.578Z,3.10
2022-09-24T05:48:26.942Z,3.17
2022-09-24T05:50:55.717Z,2.87
2022-09-24T05:53:24.045Z,2.97
2022-09-24T05:55:53.349Z,3.37
2022-09-24T05:58:21.723Z,3.17
2022-09-24T06:00:49.916Z,3.00
2022-09-24T06:03:19.415Z,3.00
2022-09-24T06:05:49.655Z,3.87
2022-09-24T06:08:19.163Z,3.03
2022-09-24T06:10:48.613Z,3.30
2022-09-24T06:13:20.962Z,3.20
2022-09-24T06:15:49.018Z,2.30
2022-09-24T06:18:17.130Z,3.30
2022-09-24T06:20:46.988Z,2.83
2022-09-24T06:23:14.951Z,2.63
2022-09-24T06:25:42.843Z,2.80
2022-09-24T06:28:10.813Z,3.00
2022-09-24T06:30:41.368Z,3.20
2022-09-24T06:33:11.389Z,2.53
2022-09-24T06:35:40.678Z,3.67
2022-09-24T06:38:11.818Z,3.47
2022-09-24T06:40:40.322Z,4.07
2022-09-24T06:43:08.868Z,4.23
2022-09-24T06:45:36.790Z,3.47
2022-09-24T06:48:07.198Z,3.73
2022-09-24T06:50:36.265Z,3.93
2022-09-24T06:53:06.607Z,7.27
2022-09-24T06:55:35.565Z,4.10
2022-09-24T06:58:05.509Z,4.10
2022-09-24T07:00:34.020Z,4.20
2022-09-24T07:03:02.057Z,3.47
2022-09-24T07:05:31.359Z,3.40
2022-09-24T07:07:59.264Z,4.20
2022-09-24T07:10:27.444Z,3.30
2022-09-24T07:12:55.414Z,3.83
2022-09-24T07:15:23.384Z,4.60
2022-09-24T07:17:56.247Z,4.17
2022-09-24T07:20:24.708Z,3.10
2022-09-24T07:22:54.020Z,3.80
2022-09-24T07:25:21.966Z,4.40
2022-09-24T07:27:50.161Z,5.77
2022-09-24T07:30:19.854Z,3.20
2022-09-24T07:32:48.320Z,3.93
2022-09-24T07:35:16.431Z,3.60
2022-09-24T07:37:44.363Z,4.23
2022-09-24T07:40:14.107Z,3.87
2022-09-24T07:42:48.428Z,3.40
2022-09-24T07:45:17.221Z,3.57
2022-09-24T07:47:45.328Z,3.70
2022-09-24T07:50:13.757Z,4.23
2022-09-24T07:52:41.864Z,3.50
2022-09-24T07:55:10.190Z,3.60
2022-09-24T07:57:40.307Z,4.40
2022-09-24T08:00:09.565Z,3.90
2022-09-24T08:02:37.671Z,3.13
2022-09-24T08:05:06.171Z,3.70
2022-09-24T08:07:34.087Z,4.97
2022-09-24T08:10:02.989Z,4.57
2022-09-24T08:12:30.960Z,3.30
2022-09-24T08:15:00.223Z,3.60
2022-09-24T08:17:28.243Z,3.17
2022-09-24T08:19:57.086Z,4.37
2022-09-24T08:22:26.359Z,3.33
2022-09-24T08:24:55.018Z,3.60
2022-09-24T08:27:23.864Z,3.03
2022-09-24T08:29:51.947Z,3.20
2022-09-24T08:32:21.274Z,4.30
2022-09-24T08:34:49.251Z,3.10
2022-09-24T08:37:17.213Z,3.20
2022-09-24T08:39:45.187Z,5.83
2022-09-24T08:42:16.133Z,4.47
2022-09-24T08:45:03.374Z,3.50
2022-09-24T08:47:45.690Z,3.50
2022-09-24T08:50:17.511Z,4.20
2022-09-24T08:53:06.561Z,3.60
2022-09-24T08:55:38.734Z,3.43
2022-09-24T08:58:22.621Z,3.90
2022-09-24T09:00:56.346Z,2.83
2022-09-24T09:03:35.179Z,3.70
2022-09-24T09:06:06.086Z,4.00
2022-09-24T09:09:06.144Z,4.07
2022-09-24T09:11:37.096Z,5.00
2022-09-24T09:14:10.851Z,3.13
2022-09-24T09:16:45.420Z,4.40
2022-09-24T09:19:17.909Z,3.70
2022-09-24T09:21:52.680Z,4.30
2022-09-24T09:24:23.414Z,3.30
2022-09-24T09:26:55.276Z,3.73
2022-09-24T09:29:26.497Z,3.20
2022-09-24T09:32:04.605Z,3.50
2022-09-24T09:34:55.187Z,4.20
2022-09-24T09:37:30.285Z,3.60
2022-09-24T09:40:10.878Z,4.10
2022-09-24T09:42:40.428Z,4.77
2022-09-24T09:45:25.444Z,5.20
2022-09-24T09:47:57.626Z,4.40
2022-09-24T09:50:30.584Z,3.77
2022-09-24T09:52:58.565Z,3.77
2022-09-24T09:55:28.864Z,5.00
2022-09-24T09:58:12.244Z,5.30
2022-09-24T10:00:40.203Z,3.77
2022-09-24T10:03:21.783Z,5.25
2022-09-24T10:05:56.421Z,4.63
2022-09-24T10:08:25.430Z,5.10
2022-09-24T10:10:57.162Z,4.67
2022-09-24T10:13:26.181Z,3.87
2022-09-24T10:15:58.405Z,4.70
2022-09-24T10:18:32.804Z,4.27
2022-09-24T10:21:04.207Z,4.13
2022-09-24T10:23:37.448Z,6.00
2022-09-24T10:26:07.114Z,4.80
2022-09-24T10:28:55.621Z,3.90
2022-09-24T10:31:25.448Z,5.97
2022-09-24T10:33:56.797Z,4.50
2022-09-24T10:36:28.262Z,4.60
2022-09-24T10:39:04.816Z,4.73
2022-09-24T10:41:33.346Z,4.70
2022-09-24T10:44:05.427Z,3.83
2022-09-24T10:46:56.093Z,4.63
2022-09-24T10:49:37.846Z,4.00
2022-09-24T10:52:14.914Z,4.33
2022-09-24T10:54:50.726Z,4.53
2022-09-24T10:57:30.248Z,5.17
2022-09-24T11:00:05.110Z,4.23
2022-09-24T11:02:58.240Z,4.37
2022-09-24T11:05:31.539Z,4.80
2022-09-24T11:08:17.486Z,3.63
2022-09-24T11:10:56.757Z,3.60
2022-09-24T11:13:32.876Z,3.50
2022-09-24T11:16:27.609Z,4.00
2022-09-24T11:19:02.101Z,3.03
2022-09-24T11:21:45.305Z,3.97
2022-09-24T11:24:39.420Z,3.73
2022-09-24T11:27:24.313Z,5.00
2022-09-24T11:30:01.828Z,4.90
2022-09-24T11:32:36.247Z,5.43
2022-09-24T11:35:25.655Z,4.23
2022-09-24T11:38:01.051Z,3.90
2022-09-24T11:40:56.107Z,3.63
2022-09-24T11:43:50.833Z,3.10
2022-09-24T11:46:32.293Z,3.37
2022-09-24T11:49:22.797Z,3.50
2022-09-24T11:54:24.785Z,3.10
2022-09-24T11:56:59.426Z,2.77
2022-09-24T11:59:38.077Z,2.53
2022-09-24T12:02:13.936Z,2.40
2022-09-24T12:04:50.966Z,1.97
2022-09-24T12:07:25.654Z,3.00
2022-09-24T12:10:00.004Z,2.60
2022-09-24T12:12:33.849Z,2.43
2022-09-24T12:15:06.151Z,3.93
2022-09-24T12:17:40.040Z,2.53
2022-09-24T12:20:18.076Z,2.30
2022-09-24T12:22:49.213Z,2.80
2022-09-24T12:25:18.503Z,2.20
2022-09-24T12:27:49.115Z,2.43
2022-09-24T12:30:46.673Z,2.37
2022-09-24T12:33:21.139Z,2.23
2022-09-24T12:36:04.368Z,2.67
2022-09-24T12:38:36.481Z,2.43
2022-09-24T12:41:32.493Z,1.70
2022-09-24T12:44:07.466Z,1.93
2022-09-24T12:46:42.427Z,2.13
2022-09-24T12:49:25.261Z,2.03
2022-09-24T12:51:53.955Z,2.50
2022-09-24T12:54:26.764Z,2.10
2022-09-24T12:57:07.046Z,1.87
2022-09-24T12:59:47.912Z,2.00
2022-09-24T13:02:18.783Z,1.80
2022-09-24T13:04:52.961Z,2.00
2022-09-24T13:07:32.770Z,1.90
2022-09-24T13:10:13.283Z,2.60
2022-09-24T13:12:41.515Z,2.00
2022-09-24T13:15:28.656Z,2.10
2022-09-24T13:18:05.343Z,1.90
2022-09-24T13:20:34.647Z,2.60
2022-09-24T13:23:15.943Z,2.37
2022-09-24T13:25:56.076Z,2.13
2022-09-24T13:28:35.793Z,1.90
2022-09-24T13:31:26.604Z,2.10
2022-09-24T13:33:56.974Z,2.30
2022-09-24T13:36:31.294Z,2.03
2022-09-24T13:39:05.074Z,1.80
2022-09-24T13:41:45.616Z,1.77
2022-09-24T13:44:19.850Z,2.30
2022-09-24T13:46:54.405Z,2.17
2022-09-24T13:49:24.533Z,1.83
2022-09-24T13:52:00.862Z,2.23
2022-09-24T13:54:35.815Z,1.83
2022-09-24T13:57:12.981Z,2.47
2022-09-24T13:59:41.269Z,1.70
2022-09-24T14:02:26.860Z,1.57
2022-09-24T14:04:57.598Z,1.97
2022-09-24T14:07:26.876Z,2.30
2022-09-24T14:10:06.403Z,1.77
2022-09-24T14:12:34.541Z,1.87
2022-09-24T14:15:06.111Z,1.80
2022-09-24T14:17:35.668Z,2.40
2022-09-24T14:20:04.067Z,2.03
2022-09-24T14:22:36.299Z,1.73
2022-09-24T14:25:09.014Z,1.57
2022-09-24T14:27:42.359Z,2.30
2022-09-24T14:30:20.333Z,1.83
2022-09-24T14:32:54.012Z,2.10
2022-09-24T14:35:29.896Z,2.77
2022-09-24T14:38:04.385Z,2.60
2022-09-24T14:40:41.112Z,2.60
2022-09-24T14:43:18.874Z,2.50
2022-09-24T14:45:48.775Z,2.17
2022-09-24T14:48:29.425Z,1.80
2022-09-24T14:50:57.630Z,1.90
2022-09-24T14:53:28.994Z,2.00
2022-09-24T14:55:57.540Z,2.00
2022-09-24T14:58:37.392Z,2.33
2022-09-24T15:01:13.911Z,2.40
2022-09-24T15:03:48.623Z,2.33
2022-09-24T15:06:21.509Z,3.23
2022-09-24T15:09:00.652Z,1.80
2022-09-24T15:11:31.421Z,1.63
2022-09-24T15:14:01.265Z,1.77
2022-09-24T15:16:32.623Z,2.43
2022-09-24T15:19:15.378Z,1.90
2022-09-24T15:21:43.519Z,2.10
2022-09-24T15:24:12.173Z,2.03
2022-09-24T15:26:43.467Z,2.17
2022-09-24T15:29:18.690Z,3.00
2022-09-24T15:31:46.707Z,1.80
2022-09-24T15:34:19.756Z,2.00
2022-09-24T15:36:48.536Z,2.70
2022-09-24T15:39:19.068Z,2.63
2022-09-24T15:41:47.078Z,2.60
2022-09-24T15:44:21.925Z,2.37
2022-09-24T15:46:51.218Z,2.47
2022-09-24T15:49:22.222Z,2.47
2022-09-24T15:51:52.135Z,2.80
2022-09-24T15:54:21.697Z,2.80
2022-09-24T15:56:52.370Z,2.53
2022-09-24T15:59:21.626Z,3.13
2022-09-24T16:01:52.433Z,2.80
2022-09-24T16:04:21.942Z,2.43
2022-09-24T16:06:50.613Z,2.50
2022-09-24T16:09:18.701Z,2.40
2022-09-24T16:11:46.844Z,2.30
2022-09-24T16:14:14.891Z,2.60
2022-09-24T16:16:43.010Z,2.23
2022-09-24T16:19:12.506Z,2.70
2022-09-24T16:21:48.581Z,2.30
2022-09-24T16:24:16.734Z,2.13
2022-09-24T16:26:44.725Z,2.30
2022-09-24T16:29:12.945Z,2.47
2022-09-24T16:31:41.056Z,2.47
2022-09-24T16:34:09.106Z,2.77
2022-09-24T16:36:37.148Z,2.97
2022-09-24T16:39:06.598Z,2.30
2022-09-24T16:41:36.957Z,2.93
2022-09-24T16:44:06.880Z,3.23
2022-09-24T16:46:35.003Z,2.80
2022-09-24T16:49:03.414Z,2.90
2022-09-24T16:51:31.472Z,3.40
2022-09-24T16:53:59.763Z,2.80
2022-09-24T16:56:29.246Z,2.80
2022-09-24T16:58:58.060Z,2.67
2022-09-24T17:01:26.414Z,3.00
2022-09-24T17:03:55.577Z,3.33
2022-09-24T17:06:25.039Z,2.90
2022-09-24T17:09:11.069Z,2.70
2022-09-24T17:11:42.055Z,3.80
2022-09-24T17:14:12.414Z,3.00
2022-09-24T17:16:40.947Z,4.07
2022-09-24T17:19:09.850Z,3.70
2022-09-24T17:21:39.003Z,3.17
2022-09-24T17:24:07.507Z,3.97
2022-09-24T17:26:36.075Z,2.67
2022-09-24T17:29:05.845Z,3.33
2022-09-24T17:31:35.601Z,2.47
2022-09-24T17:34:05.033Z,3.90
2022-09-24T17:36:35.002Z,2.60
2022-09-24T17:39:03.692Z,2.30
2022-09-24T17:41:31.716Z,2.43
2022-09-24T17:44:00.268Z,3.80
2022-09-24T17:46:31.467Z,3.00
2022-09-24T17:49:01.142Z,3.27
2022-09-24T17:51:32.637Z,3.23
2022-09-24T17:54:02.528Z,4.20
2022-09-24T17:56:33.209Z,3.20
2022-09-24T17:59:01.924Z,2.50
2022-09-24T18:01:33.765Z,3.50
2022-09-24T18:04:01.935Z,4.43
2022-09-24T18:06:33.143Z,4.17
2022-09-24T18:09:02.171Z,3.60
2022-09-24T18:11:32.719Z,4.77
2022-09-24T18:14:02.643Z,3.60
2022-09-24T18:16:33.721Z,3.40
2022-09-24T18:19:03.370Z,5.30
2022-09-24T18:21:32.637Z,3.93
2022-09-24T18:24:01.804Z,3.40
2022-09-24T18:26:32.462Z,3.87
2022-09-24T18:29:01.836Z,4.43
2022-09-24T18:31:32.731Z,4.53
2022-09-24T18:34:05.756Z,3.73
2022-09-24T18:36:35.213Z,3.90
2022-09-24T18:39:03.523Z,3.73
2022-09-24T18:41:32.637Z,3.67
2022-09-24T18:44:03.701Z,3.70
2022-09-24T18:46:35.354Z,5.10
2022-09-24T18:49:06.363Z,5.33
2022-09-24T18:51:36.449Z,4.33
2022-09-24T18:54:07.115Z,3.50
2022-09-24T18:56:36.313Z,3.77
2022-09-24T18:59:09.820Z,4.20
2022-09-24T19:01:40.057Z,3.80
2022-09-24T19:04:10.888Z,3.80
2022-09-24T19:06:40.856Z,4.07
2022-09-24T19:09:09.887Z,3.20
2022-09-24T19:11:38.159Z,4.20
2022-09-24T19:14:06.592Z,4.70
2022-09-24T19:16:34.953Z,6.50
2022-09-24T19:19:04.361Z,4.03
2022-09-24T19:21:32.628Z,4.70
2022-09-24T19:24:00.969Z,6.80
2022-09-24T19:26:30.542Z,4.20
2022-09-24T19:28:59.432Z,3.37
2022-09-24T19:31:30.224Z,3.70
2022-09-24T19:34:00.143Z,4.93
2022-09-24T19:36:29.831Z,3.90
2022-09-24T19:38:57.947Z,2.77
2022-09-24T19:41:27.222Z,4.23
2022-09-24T19:43:57.916Z,4.20
2022-09-24T19:46:27.655Z,3.57
2022-09-24T19:48:57.665Z,4.10
2022-09-24T19:51:27.880Z,4.13
2022-09-24T19:53:59.688Z,3.40
2022-09-24T19:56:28.342Z,3.40
2022-09-24T19:58:58.462Z,4.70
2022-09-24T20:01:29.350Z,4.43
2022-09-24T20:03:58.386Z,3.77
2022-09-24T20:06:31.306Z,4.03
2022-09-24T20:09:00.897Z,3.87
2022-09-24T20:11:32.448Z,4.07
2022-09-24T20:14:01.188Z,3.10
2022-09-24T20:16:35.226Z,5.03
2022-09-24T20:19:05.253Z,3.70
2022-09-24T20:21:37.670Z,3.30
2022-09-24T20:24:10.873Z,3.50
2022-09-24T20:26:59.591Z,3.60
2022-09-24T20:29:27.980Z,4.57
2022-09-24T20:31:56.996Z,3.90
2022-09-24T20:34:28.750Z,4.50
2022-09-24T20:36:59.774Z,4.53
2022-09-24T20:39:34.898Z,4.30
2022-09-24T20:42:06.360Z,3.90
2022-09-24T20:44:34.707Z,4.43
2022-09-24T20:47:02.893Z,3.10
2022-09-24T20:49:33.302Z,3.80
2022-09-24T20:52:03.247Z,4.23
2022-09-24T20:54:34.899Z,3.77
2022-09-24T20:57:03.294Z,4.50
2022-09-24T20:59:31.479Z,6.27
2022-09-24T21:01:59.711Z,4.07
2022-09-24T21:04:27.831Z,4.73
2022-09-24T21:06:58.657Z,3.80
2022-09-24T21:09:26.672Z,3.33
2022-09-24T21:11:57.382Z,3.10
2022-09-24T21:14:26.243Z,4.00
2022-09-24T21:16:55.327Z,3.63
2022-09-24T21:19:31.819Z,3.63
2022-09-24T21:22:01.712Z,4.40
2022-09-24T21:24:31.611Z,4.53
2022-09-24T21:27:03.026Z,3.47
2022-09-24T21:29:35.621Z,3.50
2022-09-24T21:32:07.226Z,3.90
2022-09-24T21:34:35.678Z,3.87
2022-09-24T21:37:04.067Z,4.27
2022-09-24T21:39:32.453Z,3.63
2022-09-24T21:42:06.937Z,3.97
2022-09-24T21:44:35.496Z,3.83
2022-09-24T21:47:04.122Z,4.20
2022-09-24T21:49:36.680Z,3.93
2022-09-24T21:52:06.754Z,3.17
2022-09-24T21:54:36.600Z,5.10
2022-09-24T21:57:06.133Z,4.20
2022-09-24T21:59:51.617Z,4.27
2022-09-24T22:02:20.436Z,4.33
2022-09-24T22:04:48.510Z,4.47
2022-09-24T22:07:17.134Z,4.53
2022-09-24T22:09:45.421Z,3.63
2022-09-24T22:12:15.220Z,3.93
2022-09-24T22:14:45.538Z,3.57
2022-09-24T22:17:14.192Z,4.40
2022-09-24T22:19:42.914Z,4.10
2022-09-24T22:22:11.022Z,4.40
2022-09-24T22:24:39.393Z,4.20
2022-09-24T22:27:07.742Z,3.90
2022-09-24T22:29:37.175Z,5.07
2022-09-24T22:32:05.605Z,3.70
2022-09-24T22:34:51.097Z,3.80
2022-09-24T22:37:19.114Z,3.97
2022-09-24T22:39:47.164Z,3.80
2022-09-24T22:42:15.278Z,3.50
2022-09-24T22:44:44.763Z,3.00
2022-09-24T22:47:12.833Z,3.77
2022-09-24T22:49:41.054Z,3.67
2022-09-24T22:52:09.119Z,3.93
2022-09-24T22:54:37.182Z,3.47
2022-09-24T22:57:05.295Z,5.73
2022-09-24T22:59:34.052Z,4.80
2022-09-24T23:02:03.553Z,5.30
2022-09-24T23:04:32.613Z,3.80
2022-09-24T23:07:00.675Z,4.20
2022-09-24T23:09:28.893Z,4.63
2022-09-24T23:11:57.197Z,4.63
2022-09-24T23:14:25.351Z,3.63
2022-09-24T23:16:53.645Z,4.83
2022-09-24T23:19:23.026Z,4.53
2022-09-24T23:21:51.092Z,3.57
2022-09-24T23:24:21.863Z,3.53
2022-09-24T23:26:51.199Z,4.20
2022-09-24T23:29:19.331Z,2.73
2022-09-24T23:31:47.419Z,5.13
2022-09-24T23:34:15.559Z,3.73
2022-09-24T23:36:45.318Z,4.13
2022-09-24T23:39:13.681Z,3.13
2022-09-24T23:41:41.930Z,4.03
2022-09-24T23:44:10.546Z,3.97
2022-09-24T23:46:38.728Z,2.60
2022-09-24T23:49:06.849Z,3.63
2022-09-24T23:51:34.811Z,4.67
2022-09-24T23:54:04.551Z,2.87
2022-09-24T23:56:33.005Z,3.10
2022-09-24T23:59:01.018Z,4.10
